Time;durP1;ratioP1;P1;durP2;ratioP2;P2;SDS_P1;SDS_P2;PMS_P1;PMS_P2;Temp;Humidity;BMP_temperature;BMP_pressure;BME280_temperature;BME280_humidity;BME280_pressure;Samples;Min_cycle;Max_cycle;Signal;HPM_P1;HPM_P2
2023/08/13 00:01:32;;;;;;;2.57;2.37;;;25.30;90.30;;;;;;5072509;28;20260;-75
2023/08/13 00:03:59;;;;;;;3.10;2.50;;;25.30;90.20;;;;;;5072053;28;20208;-74
2023/08/13 00:06:26;;;;;;;4.53;3.03;;;25.30;90.20;;;;;;5072561;28;20239;-74
2023/08/13 00:08:52;;;;;;;2.90;2.53;;;25.20;90.20;;;;;;5072814;28;20193;-75
2023/08/13 00:11:21;;;;;;;4.77;2.70;;;25.20;90.30;;;;;;5073420;28;20232;-74
2023/08/13 00:13:47;;;;;;;3.30;2.70;;;25.20;90.30;;;;;;5072377;28;20280;-74
2023/08/13 00:16:14;;;;;;;2.80;2.43;;;25.20;90.30;;;;;;5071857;28;20688;-75
2023/08/13 00:18:41;;;;;;;2.80;2.60;;;25.20;90.30;;;;;;5072157;28;20201;-75
2023/08/13 00:21:08;;;;;;;3.73;2.60;;;25.20;90.30;;;;;;5072285;28;20211;-74
2023/08/13 00:23:35;;;;;;;2.80;2.40;;;25.20;90.30;;;;;;5072297;28;20228;-73
2023/08/13 00:26:02;;;;;;;4.60;2.80;;;25.20;90.20;;;;;;5072280;28;20589;-75
2023/08/13 00:28:30;;;;;;;3.30;3.10;;;25.10;90.10;;;;;;5074177;28;20826;-74
2023/08/13 00:30:57;;;;;;;3.87;3.07;;;25.10;90.20;;;;;;5054313;28;20189;-73
2023/08/13 00:33:24;;;;;;;3.53;2.93;;;25.00;90.10;;;;;;5071735;28;20803;-75
2023/08/13 00:35:51;;;;;;;3.43;2.80;;;25.00;90.20;;;;;;5071834;28;20221;-75
2023/08/13 00:38:18;;;;;;;3.50;2.87;;;25.00;90.20;;;;;;5071653;28;20256;-74
2023/08/13 00:40:45;;;;;;;3.97;3.13;;;25.00;90.20;;;;;;5071931;28;20527;-73
2023/08/13 00:43:12;;;;;;;4.03;2.77;;;24.90;90.20;;;;;;5061574;28;20205;-75
2023/08/13 00:45:41;;;;;;;4.80;2.80;;;24.90;90.20;;;;;;5051916;28;20186;-74
2023/08/13 00:48:08;;;;;;;3.73;3.37;;;24.90;90.20;;;;;;5051385;28;20266;-75
2023/08/13 00:50:36;;;;;;;3.80;2.97;;;24.90;90.30;;;;;;5051681;28;20212;-75
2023/08/13 00:53:03;;;;;;;3.10;2.73;;;24.90;90.40;;;;;;5051888;28;20295;-74
2023/08/13 00:55:31;;;;;;;3.30;3.00;;;24.80;90.20;;;;;;5051818;28;20326;-74
2023/08/13 00:57:57;;;;;;;5.60;3.47;;;24.80;90.20;;;;;;5051490;28;20217;-75
2023/08/13 01:00:26;;;;;;;6.40;3.10;;;24.80;90.20;;;;;;5051558;28;20201;-74
2023/08/13 01:02:54;;;;;;;2.53;2.33;;;24.70;90.20;;;;;;5051681;28;20202;-74
2023/08/13 01:05:24;;;;;;;3.77;2.63;;;24.70;90.20;;;;;;5051537;28;20229;-74
2023/08/13 01:07:59;;;;;;;3.73;2.70;;;24.70;90.20;;;;;;5051325;28;20323;-74
2023/08/13 01:10:33;;;;;;;3.60;2.53;;;24.60;90.30;;;;;;5051317;28;20232;-75
2023/08/13 01:13:04;;;;;;;3.27;2.67;;;24.60;90.30;;;;;;5051261;28;20212;-74
2023/08/13 01:15:35;;;;;;;2.80;2.53;;;24.60;90.30;;;;;;5051375;28;20344;-74
2023/08/13 01:18:04;;;;;;;3.03;2.80;;;24.70;90.30;;;;;;5051128;28;20197;-74
2023/08/13 01:20:31;;;;;;;5.33;3.00;;;24.60;90.20;;;;;;5050381;28;20287;-74
2023/08/13 01:23:00;;;;;;;3.67;2.80;;;24.60;90.10;;;;;;5053494;28;20206;-74
2023/08/13 01:25:27;;;;;;;2.40;2.20;;;24.70;90.30;;;;;;5055268;28;20215;-74
2023/08/13 01:27:59;;;;;;;2.90;2.70;;;24.70;90.10;;;;;;5055012;28;20288;-74
2023/08/13 01:30:34;;;;;;;2.80;2.60;;;24.70;90.10;;;;;;5054826;28;20229;-75
2023/08/13 01:33:03;;;;;;;5.07;2.80;;;24.70;90.20;;;;;;5055143;28;20199;-74
2023/08/13 01:35:32;;;;;;;3.20;2.90;;;24.70;90.20;;;;;;5054908;28;20656;-75
2023/08/13 01:38:01;;;;;;;2.97;2.40;;;24.70;90.20;;;;;;5055096;28;20212;-75
2023/08/13 01:40:28;;;;;;;3.33;2.93;;;24.70;90.10;;;;;;5054497;28;20276;-75
2023/08/13 01:42:55;;;;;;;3.13;2.50;;;24.70;90.30;;;;;;5062798;28;20280;-75
2023/08/13 01:45:22;;;;;;;4.13;2.70;;;24.60;90.20;;;;;;5074822;28;20221;-75
2023/08/13 01:47:50;;;;;;;4.43;3.13;;;24.70;90.40;;;;;;5075016;28;20332;-75
2023/08/13 01:50:17;;;;;;;4.20;2.80;;;24.70;90.40;;;;;;5074642;28;20205;-74
2023/08/13 01:52:43;;;;;;;3.03;2.73;;;24.60;90.30;;;;;;5074913;28;20235;-74
2023/08/13 01:55:12;;;;;;;4.03;3.33;;;24.60;90.30;;;;;;5074819;28;20223;-75
2023/08/13 01:57:38;;;;;;;5.60;3.37;;;24.70;90.50;;;;;;5074074;28;20689;-75
2023/08/13 02:00:07;;;;;;;3.57;3.27;;;24.60;90.80;;;;;;5074682;28;20209;-74
2023/08/13 02:02:34;;;;;;;3.97;3.33;;;24.60;90.50;;;;;;5074762;28;20591;-74
2023/08/13 02:05:01;;;;;;;3.77;3.47;;;24.60;90.50;;;;;;5074804;28;20247;-75
2023/08/13 02:07:28;;;;;;;4.50;4.10;;;24.70;90.60;;;;;;5074124;28;20707;-74
2023/08/13 02:09:55;;;;;;;4.73;3.80;;;24.60;90.50;;;;;;5074296;28;20216;-75
2023/08/13 02:12:23;;;;;;;3.57;3.00;;;24.60;90.50;;;;;;5074522;28;20599;-74
2023/08/13 02:14:50;;;;;;;4.63;4.13;;;24.60;90.50;;;;;;5074471;28;20215;-75
2023/08/13 02:17:17;;;;;;;4.13;3.03;;;24.60;90.50;;;;;;5074156;28;20588;-74
2023/08/13 02:19:44;;;;;;;5.80;3.17;;;24.50;90.50;;;;;;5074281;28;20228;-75
2023/08/13 02:22:10;;;;;;;5.13;3.23;;;24.50;90.50;;;;;;5074360;28;20211;-76
2023/08/13 02:24:37;;;;;;;4.77;3.00;;;24.50;90.50;;;;;;5073881;28;20232;-75
2023/08/13 02:27:05;;;;;;;10.00;3.73;;;24.40;90.50;;;;;;5073923;28;20223;-75
2023/08/13 02:29:33;;;;;;;3.87;3.17;;;24.40;90.60;;;;;;5073789;28;20262;-75
2023/08/13 02:32:00;;;;;;;3.37;3.13;;;24.40;90.60;;;;;;5073986;28;20209;-74
2023/08/13 02:34:27;;;;;;;4.67;3.40;;;24.40;90.60;;;;;;5073843;28;20229;-75
2023/08/13 02:36:54;;;;;;;6.70;3.00;;;24.40;90.70;;;;;;5073981;28;20213;-75
2023/08/13 02:39:20;;;;;;;3.73;3.20;;;24.40;90.70;;;;;;5073636;28;20764;-74
2023/08/13 02:41:47;;;;;;;3.30;3.00;;;24.40;90.60;;;;;;5073935;28;20204;-74
2023/08/13 02:44:14;;;;;;;4.23;3.50;;;24.40;90.60;;;;;;5055425;28;20320;-75
2023/08/13 02:46:42;;;;;;;3.97;3.13;;;24.40;90.60;;;;;;5053641;28;20206;-74
2023/08/13 02:49:09;;;;;;;6.37;2.60;;;24.40;90.70;;;;;;5053626;28;20213;-74
2023/08/13 02:51:36;;;;;;;3.47;2.70;;;24.50;90.70;;;;;;5053615;28;20229;-74
2023/08/13 02:54:03;;;;;;;3.67;2.80;;;24.50;90.60;;;;;;5053214;28;20212;-74
2023/08/13 02:56:30;;;;;;;3.00;2.80;;;24.50;90.60;;;;;;5053425;28;20321;-75
2023/08/13 02:58:56;;;;;;;3.10;2.80;;;24.50;90.50;;;;;;5053538;28;20220;-74
2023/08/13 03:01:23;;;;;;;5.80;3.50;;;24.50;90.50;;;;;;5053259;28;20233;-74
2023/08/13 03:03:52;;;;;;;5.53;3.60;;;24.50;90.60;;;;;;5053501;28;20620;-74
2023/08/13 03:06:20;;;;;;;3.47;3.17;;;24.50;90.60;;;;;;5053195;28;20723;-75
2023/08/13 03:08:47;;;;;;;3.77;3.13;;;24.40;90.50;;;;;;5052707;28;20275;-74
2023/08/13 03:11:14;;;;;;;4.70;3.00;;;24.40;90.50;;;;;;5053459;28;20216;-74
2023/08/13 03:13:40;;;;;;;3.93;3.20;;;24.40;90.50;;;;;;5053718;28;20209;-74
2023/08/13 03:16:07;;;;;;;5.13;2.80;;;24.40;90.60;;;;;;5052855;28;20225;-74
2023/08/13 03:18:34;;;;;;;3.07;2.77;;;24.30;90.50;;;;;;5053181;28;20217;-75
2023/08/13 03:21:02;;;;;;;5.70;2.80;;;24.30;90.50;;;;;;5053276;28;20209;-74
2023/08/13 03:23:32;;;;;;;4.73;3.00;;;24.40;90.60;;;;;;5052607;28;20233;-74
2023/08/13 03:25:59;;;;;;;3.93;3.10;;;24.40;90.50;;;;;;5034977;28;20221;-73
2023/08/13 03:28:25;;;;;;;3.50;3.20;;;24.40;90.60;;;;;;5052569;28;20234;-74
2023/08/13 03:30:58;;;;;;;3.27;2.97;;;24.40;90.60;;;;;;5052666;28;20643;-74
2023/08/13 03:33:25;;;;;;;3.33;2.60;;;24.40;90.60;;;;;;5052850;28;20226;-74
2023/08/13 03:35:52;;;;;;;4.20;3.30;;;24.30;90.50;;;;;;5052816;28;20708;-73
2023/08/13 03:38:20;;;;;;;3.70;3.20;;;24.30;90.50;;;;;;5052739;28;20240;-74
2023/08/13 03:40:47;;;;;;;4.23;2.97;;;24.30;90.50;;;;;;5052554;28;20196;-74
2023/08/13 03:43:14;;;;;;;3.87;2.80;;;24.30;90.50;;;;;;5062732;28;20685;-74
2023/08/13 03:45:42;;;;;;;3.30;2.97;;;24.30;90.50;;;;;;5072193;28;20298;-74
2023/08/13 03:48:09;;;;;;;3.60;3.17;;;24.30;90.50;;;;;;5072344;28;20293;-74
2023/08/13 03:50:40;;;;;;;4.90;3.07;;;24.30;90.90;;;;;;5072158;28;20665;-74
2023/08/13 03:53:07;;;;;;;3.60;3.17;;;24.30;90.60;;;;;;5072791;28;20211;-74
2023/08/13 03:55:35;;;;;;;3.67;3.13;;;24.20;90.60;;;;;;5072554;28;20204;-74
2023/08/13 03:58:02;;;;;;;3.90;3.20;;;24.20;90.70;;;;;;5072423;28;20231;-75
2023/08/13 04:00:30;;;;;;;3.07;2.73;;;24.20;91.00;;;;;;5072186;28;20224;-74
2023/08/13 04:02:56;;;;;;;3.40;3.07;;;24.20;90.70;;;;;;5072494;28;20205;-74
2023/08/13 04:05:24;;;;;;;5.50;3.10;;;24.20;91.10;;;;;;5071943;28;20700;-74
2023/08/13 04:07:50;;;;;;;3.10;2.80;;;24.20;90.80;;;;;;5072203;28;20217;-74
2023/08/13 04:10:17;;;;;;;3.80;2.63;;;24.20;90.80;;;;;;5071978;28;20233;-74
2023/08/13 04:12:46;;;;;;;3.20;2.90;;;24.20;90.80;;;;;;5072154;28;20263;-74
2023/08/13 04:15:12;;;;;;;3.50;3.20;;;24.20;90.80;;;;;;5071876;28;20239;-74
2023/08/13 04:17:39;;;;;;;3.27;2.93;;;24.20;90.80;;;;;;5072022;28;20215;-75
2023/08/13 04:20:08;;;;;;;6.13;3.33;;;24.20;90.80;;;;;;5071601;28;20212;-74
2023/08/13 04:22:34;;;;;;;4.50;3.33;;;24.20;91.20;;;;;;5072162;28;20572;-74
2023/08/13 04:25:01;;;;;;;4.37;3.23;;;24.20;90.90;;;;;;5072032;28;20201;-74
2023/08/13 04:27:28;;;;;;;4.57;3.27;;;24.20;91.00;;;;;;5071553;28;20745;-75
2023/08/13 04:29:56;;;;;;;3.13;2.83;;;24.20;91.00;;;;;;5071673;28;20239;-75
2023/08/13 04:32:23;;;;;;;4.03;3.50;;;24.20;91.00;;;;;;5071509;28;20224;-75
2023/08/13 04:34:50;;;;;;;3.97;3.33;;;24.20;91.00;;;;;;5019825;28;20295;-74
2023/08/13 04:37:17;;;;;;;5.07;3.47;;;24.20;91.00;;;;;;5071549;28;20247;-74
2023/08/13 04:39:43;;;;;;;3.73;3.10;;;24.20;91.00;;;;;;5071607;28;20221;-75
2023/08/13 04:42:10;;;;;;;4.60;3.17;;;24.20;91.10;;;;;;5069831;28;20230;-74
2023/08/13 04:44:38;;;;;;;3.53;3.13;;;24.30;91.10;;;;;;5051683;28;20209;-74
2023/08/13 04:47:07;;;;;;;3.50;2.90;;;24.30;91.00;;;;;;5051556;28;20320;-75
2023/08/13 04:49:33;;;;;;;3.43;3.13;;;24.30;91.00;;;;;;5051702;28;20213;-74
2023/08/13 04:52:00;;;;;;;4.03;2.60;;;24.20;90.90;;;;;;5051374;28;20227;-75
2023/08/13 04:54:27;;;;;;;4.13;3.30;;;24.20;90.90;;;;;;5051765;28;20550;-74
2023/08/13 04:56:54;;;;;;;6.10;3.37;;;24.20;90.80;;;;;;5053396;28;20233;-75
2023/08/13 04:59:20;;;;;;;4.10;2.87;;;24.20;90.90;;;;;;5056077;28;20277;-74
2023/08/13 05:01:48;;;;;;;6.07;3.23;;;24.20;90.90;;;;;;5055612;28;20209;-74
2023/08/13 05:04:16;;;;;;;4.90;2.93;;;24.20;90.90;;;;;;5055649;28;20209;-74
2023/08/13 05:06:43;;;;;;;3.83;3.00;;;24.20;90.90;;;;;;5055717;28;20213;-74
2023/08/13 05:09:09;;;;;;;5.03;3.00;;;24.30;90.90;;;;;;5055255;28;20230;-74
2023/08/13 05:11:36;;;;;;;3.30;3.00;;;24.30;91.00;;;;;;5055627;28;20209;-75
2023/08/13 05:14:03;;;;;;;3.50;2.67;;;24.30;91.00;;;;;;5055350;28;20723;-75
2023/08/13 05:16:30;;;;;;;2.90;2.70;;;24.40;91.00;;;;;;5055004;28;20741;-74
2023/08/13 05:18:57;;;;;;;3.97;2.70;;;24.40;91.10;;;;;;5055295;28;20229;-75
2023/08/13 05:21:25;;;;;;;6.43;3.33;;;24.40;91.00;;;;;;5055107;28;20212;-73
2023/08/13 05:23:52;;;;;;;5.60;3.57;;;24.40;91.00;;;;;;5054972;28;20233;-74
2023/08/13 05:26:19;;;;;;;4.00;3.60;;;24.40;91.10;;;;;;5055317;28;20206;-74
2023/08/13 05:28:46;;;;;;;3.27;2.93;;;24.40;91.10;;;;;;5055056;28;20225;-74
2023/08/13 05:31:13;;;;;;;3.77;3.40;;;24.40;91.20;;;;;;5054915;28;20216;-74
2023/08/13 05:33:39;;;;;;;3.23;2.83;;;24.50;91.40;;;;;;5054847;28;20249;-74
2023/08/13 05:36:06;;;;;;;3.33;3.13;;;24.50;91.50;;;;;;5055293;28;20657;-74
2023/08/13 05:38:35;;;;;;;3.60;3.30;;;24.50;91.50;;;;;;5054415;28;20230;-74
2023/08/13 05:41:01;;;;;;;3.80;3.00;;;24.60;91.50;;;;;;5054655;28;20723;-74
2023/08/13 05:43:28;;;;;;;3.17;2.87;;;24.60;91.60;;;;;;5067359;28;20207;-74
2023/08/13 05:45:55;;;;;;;5.03;3.67;;;24.70;91.50;;;;;;5074952;28;20215;-75
2023/08/13 05:48:22;;;;;;;4.07;3.30;;;24.60;91.40;;;;;;5074747;28;20209;-74
2023/08/13 05:50:49;;;;;;;4.60;3.77;;;24.60;91.60;;;;;;5056670;28;20239;-74
2023/08/13 05:53:16;;;;;;;5.57;3.57;;;24.60;91.60;;;;;;5075098;28;20212;-74
2023/08/13 05:55:44;;;;;;;4.17;3.50;;;24.60;91.70;;;;;;5074864;28;20237;-73
2023/08/13 05:58:11;;;;;;;5.10;3.70;;;24.70;91.70;;;;;;5074621;28;20228;-74
2023/08/13 06:00:38;;;;;;;3.57;3.27;;;24.70;91.70;;;;;;5074807;28;20315;-75
2023/08/13 06:03:05;;;;;;;5.43;3.53;;;24.70;91.70;;;;;;5056763;28;20209;-75
2023/08/13 06:05:32;;;;;;;5.53;3.67;;;24.70;91.70;;;;;;5074623;28;20339;-75
2023/08/13 06:07:58;;;;;;;3.90;3.50;;;24.70;91.80;;;;;;5073732;28;20649;-75
2023/08/13 06:10:25;;;;;;;4.83;2.97;;;24.80;91.90;;;;;;5074430;28;20201;-74
2023/08/13 06:12:54;;;;;;;6.33;3.43;;;24.90;91.90;;;;;;5074281;28;20204;-75
2023/08/13 06:15:20;;;;;;;3.93;3.20;;;24.90;91.80;;;;;;5074569;28;20233;-74
2023/08/13 06:17:48;;;;;;;5.20;3.10;;;25.00;91.70;;;;;;5073813;28;20719;-74
2023/08/13 06:20:17;;;;;;;4.83;3.70;;;25.00;91.80;;;;;;5074626;28;20205;-75
2023/08/13 06:22:44;;;;;;;3.40;3.10;;;25.00;91.80;;;;;;5074222;28;20251;-74
2023/08/13 06:25:11;;;;;;;4.60;3.37;;;25.10;91.80;;;;;;5074420;28;20209;-75
2023/08/13 06:27:37;;;;;;;6.80;4.03;;;25.20;91.70;;;;;;5073648;28;20712;-75
2023/08/13 06:30:08;;;;;;;5.93;3.33;;;25.20;91.70;;;;;;5073671;28;20243;-74
2023/08/13 06:32:35;;;;;;;5.33;3.93;;;25.20;91.70;;;;;;5074067;28;20228;-74
2023/08/13 06:35:02;;;;;;;3.43;3.03;;;25.30;91.70;;;;;;5074013;28;20213;-74
2023/08/13 06:37:29;;;;;;;3.50;3.10;;;25.30;91.60;;;;;;5038017;28;20294;-75
2023/08/13 06:39:56;;;;;;;3.67;3.37;;;25.40;91.60;;;;;;5073976;28;20213;-74
2023/08/13 06:42:23;;;;;;;3.57;3.20;;;25.40;91.40;;;;;;5070574;28;20228;-75
2023/08/13 06:44:50;;;;;;;7.37;3.23;;;25.50;91.60;;;;;;5053880;28;20521;-74
2023/08/13 06:47:18;;;;;;;5.43;3.20;;;25.50;91.30;;;;;;5053757;28;20219;-75
2023/08/13 06:49:45;;;;;;;3.10;2.70;;;25.50;91.10;;;;;;5053397;28;20574;-75
2023/08/13 06:52:12;;;;;;;4.20;3.40;;;25.50;91.10;;;;;;5053797;28;20206;-74
2023/08/13 06:54:38;;;;;;;4.70;3.30;;;25.60;91.10;;;;;;5053790;28;20209;-73
2023/08/13 06:57:05;;;;;;;3.70;3.40;;;25.70;90.90;;;;;;5053173;28;20218;-74
2023/08/13 06:59:32;;;;;;;3.43;3.13;;;25.70;90.90;;;;;;5053535;28;20212;-74
2023/08/13 07:01:59;;;;;;;4.03;3.30;;;25.70;90.90;;;;;;5053227;28;20212;-75
2023/08/13 07:04:28;;;;;;;4.47;3.17;;;25.80;91.00;;;;;;5053655;28;20233;-74
2023/08/13 07:06:55;;;;;;;4.60;3.57;;;25.80;90.60;;;;;;5053106;28;20225;-74
2023/08/13 07:09:24;;;;;;;4.50;2.80;;;25.80;90.40;;;;;;5053166;28;20705;-74
2023/08/13 07:11:51;;;;;;;3.33;3.03;;;25.80;90.40;;;;;;5053453;28;20562;-74
2023/08/13 07:14:18;;;;;;;3.87;3.10;;;25.90;90.30;;;;;;5053451;28;20236;-74
2023/08/13 07:16:45;;;;;;;4.70;3.13;;;26.00;90.20;;;;;;5053172;28;20545;-74
2023/08/13 07:19:12;;;;;;;3.80;3.00;;;26.00;90.10;;;;;;5055982;28;20685;-74
2023/08/13 07:21:40;;;;;;;3.63;2.93;;;26.10;90.00;;;;;;5072337;28;20203;-74
2023/08/13 07:24:07;;;;;;;3.00;2.60;;;26.20;89.70;;;;;;5072838;28;20209;-74
2023/08/13 07:26:34;;;;;;;3.03;2.73;;;26.30;89.70;;;;;;5073206;28;20236;-74
2023/08/13 07:29:02;;;;;;;3.73;2.80;;;26.30;89.40;;;;;;5072671;28;20225;-74
2023/08/13 07:31:29;;;;;;;3.77;3.10;;;26.40;89.00;;;;;;5072811;28;20207;-75
2023/08/13 07:33:56;;;;;;;2.97;2.50;;;26.50;88.30;;;;;;5073059;28;20300;-74
2023/08/13 07:36:23;;;;;;;2.70;2.50;;;26.50;88.10;;;;;;5072707;28;20234;-75
2023/08/13 07:38:52;;;;;;;2.80;2.60;;;26.60;87.70;;;;;;5072303;28;20222;-74
2023/08/13 07:41:19;;;;;;;3.37;2.40;;;26.70;87.90;;;;;;5072710;28;20295;-74
2023/08/13 07:43:45;;;;;;;2.67;2.47;;;26.70;86.60;;;;;;5057821;28;20198;-75
2023/08/13 07:46:12;;;;;;;2.43;2.23;;;26.80;86.70;;;;;;5053041;28;20240;-75
2023/08/13 07:48:39;;;;;;;2.47;2.27;;;26.80;86.10;;;;;;5052622;28;20296;-74
2023/08/13 07:51:06;;;;;;;2.93;2.30;;;26.80;85.80;;;;;;5052510;28;20301;-74
2023/08/13 07:53:33;;;;;;;4.23;2.67;;;26.90;85.40;;;;;;5052589;28;20245;-75
2023/08/13 07:56:01;;;;;;;2.43;2.00;;;27.00;85.10;;;;;;5052836;28;20653;-74
2023/08/13 07:58:28;;;;;;;2.40;2.20;;;27.00;84.70;;;;;;5052215;28;20222;-73
2023/08/13 08:00:56;;;;;;;2.93;2.30;;;27.10;84.80;;;;;;5052132;28;20231;-75
2023/08/13 08:03:24;;;;;;;2.27;2.00;;;27.20;85.70;;;;;;5052491;28;20237;-74
2023/08/13 08:05:51;;;;;;;2.70;2.17;;;27.30;84.30;;;;;;5052454;28;20253;-75
2023/08/13 08:08:18;;;;;;;1.90;1.80;;;27.30;83.90;;;;;;5052096;28;20258;-74
2023/08/13 08:10:45;;;;;;;2.27;2.07;;;27.40;83.50;;;;;;5052517;28;20219;-73
2023/08/13 08:13:13;;;;;;;3.37;2.37;;;27.50;84.10;;;;;;5051852;28;20236;-74
2023/08/13 08:15:40;;;;;;;2.10;1.90;;;27.50;82.90;;;;;;5052338;28;20210;-74
2023/08/13 08:18:07;;;;;;;3.63;2.27;;;27.60;84.00;;;;;;5051624;28;20239;-74
2023/08/13 08:20:34;;;;;;;2.53;2.23;;;27.70;82.90;;;;;;5052017;28;20231;-74
2023/08/13 08:23:01;;;;;;;2.50;2.00;;;27.70;82.10;;;;;;5052020;28;20211;-74
2023/08/13 08:25:28;;;;;;;3.37;2.57;;;27.60;81.60;;;;;;5052329;28;20203;-75
2023/08/13 08:27:55;;;;;;;3.43;2.10;;;27.70;80.90;;;;;;5051676;28;20587;-74
2023/08/13 08:30:24;;;;;;;2.17;1.97;;;27.70;82.10;;;;;;5051929;28;20234;-74
2023/08/13 08:32:51;;;;;;;1.93;1.70;;;27.80;79.60;;;;;;5051426;28;20307;-75
2023/08/13 08:35:18;;;;;;;2.37;2.17;;;27.80;77.90;;;;;;5051919;28;20227;-76
2023/08/13 08:37:45;;;;;;;2.53;2.10;;;27.90;77.90;;;;;;5056017;28;20235;-73
2023/08/13 08:40:12;;;;;;;2.80;2.00;;;27.90;78.00;;;;;;5058151;28;20229;-74
2023/08/13 08:42:41;;;;;;;2.07;1.87;;;27.90;77.90;;;;;;5056900;28;20282;-74
2023/08/13 08:45:10;;;;;;;2.67;2.10;;;28.00;77.70;;;;;;5072176;28;20234;-75
2023/08/13 08:47:40;;;;;;;2.50;2.30;;;28.00;77.20;;;;;;5072178;28;20203;-74
2023/08/13 08:50:12;;;;;;;2.40;2.20;;;28.00;77.50;;;;;;5071471;28;20695;-74
2023/08/13 08:52:40;;;;;;;4.17;2.30;;;27.90;78.20;;;;;;5071931;28;20193;-74
2023/08/13 08:55:07;;;;;;;2.20;2.00;;;28.00;78.40;;;;;;5072936;28;20632;-75
2023/08/13 08:57:36;;;;;;;2.40;2.20;;;28.10;78.40;;;;;;5054057;28;20208;-73
2023/08/13 09:00:04;;;;;;;2.20;2.00;;;28.20;79.30;;;;;;5072237;28;20328;-75
2023/08/13 09:02:31;;;;;;;2.10;1.90;;;28.50;79.90;;;;;;5071756;28;20284;-74
2023/08/13 09:04:59;;;;;;;2.50;2.20;;;28.70;79.20;;;;;;5072004;28;20263;-75
2023/08/13 09:07:30;;;;;;;2.90;2.07;;;28.80;77.80;;;;;;5071445;28;20204;-74
2023/08/13 09:09:57;;;;;;;2.30;1.90;;;28.90;75.60;;;;;;5071603;28;20201;-74
2023/08/13 09:12:24;;;;;;;2.93;2.43;;;28.80;75.70;;;;;;5072078;28;20239;-75
2023/08/13 09:14:55;;;;;;;2.70;1.90;;;28.70;75.20;;;;;;5071471;28;20205;-74
2023/08/13 09:17:24;;;;;;;2.47;2.00;;;28.80;75.80;;;;;;5071155;28;20319;-74
2023/08/13 09:19:51;;;;;;;3.03;2.07;;;28.90;75.20;;;;;;5071654;28;20228;-74
2023/08/13 09:22:19;;;;;;;3.00;1.87;;;29.00;74.90;;;;;;5071484;28;20266;-74
2023/08/13 09:24:48;;;;;;;2.20;2.00;;;29.10;74.50;;;;;;5071665;28;20212;-75
2023/08/13 09:27:15;;;;;;;2.60;2.27;;;29.10;73.60;;;;;;5071428;28;20279;-74
2023/08/13 09:29:42;;;;;;;2.90;2.13;;;29.10;74.40;;;;;;5071106;28;20228;-75
2023/08/13 09:32:09;;;;;;;3.33;2.30;;;29.20;73.80;;;;;;5071342;28;20204;-74
2023/08/13 09:34:36;;;;;;;2.50;2.03;;;29.10;73.60;;;;;;5071753;28;20205;-74
2023/08/13 09:37:03;;;;;;;2.13;1.90;;;29.10;74.10;;;;;;5071411;28;20212;-74
2023/08/13 09:39:32;;;;;;;2.27;1.90;;;29.20;73.90;;;;;;5070883;28;20224;-74
2023/08/13 09:42:00;;;;;;;2.60;2.10;;;29.20;73.10;;;;;;5071365;28;20239;-74
2023/08/13 09:44:29;;;;;;;2.40;2.00;;;29.30;73.20;;;;;;5054029;28;20212;-74
2023/08/13 09:47:01;;;;;;;2.23;1.90;;;29.40;72.20;;;;;;5054725;28;20209;-75
2023/08/13 09:49:30;;;;;;;2.20;1.93;;;29.40;73.10;;;;;;5054635;28;20240;-74
2023/08/13 09:52:00;;;;;;;3.53;2.00;;;29.50;72.50;;;;;;5054914;28;20221;-75
2023/08/13 09:54:35;;;;;;;2.87;2.20;;;29.60;72.70;;;;;;5054498;28;20232;-74
2023/08/13 09:57:03;;;;;;;1.80;1.70;;;29.70;72.10;;;;;;5054854;28;20192;-74
2023/08/13 09:59:33;;;;;;;2.20;2.00;;;29.60;70.80;;;;;;5054739;28;20237;-75
2023/08/13 10:02:00;;;;;;;2.20;2.00;;;29.60;71.30;;;;;;5054603;28;20228;-76
2023/08/13 10:04:28;;;;;;;2.90;2.10;;;29.70;71.30;;;;;;5054760;28;20237;-75
2023/08/13 10:06:56;;;;;;;2.03;1.93;;;29.70;70.90;;;;;;5054741;28;20312;-74
2023/08/13 10:09:23;;;;;;;4.07;1.90;;;29.80;71.00;;;;;;5054584;28;20525;-74
2023/08/13 10:11:51;;;;;;;2.33;2.13;;;29.80;72.20;;;;;;5054637;28;20186;-74
2023/08/13 10:14:19;;;;;;;2.53;2.00;;;29.90;71.60;;;;;;5054456;28;20231;-74
2023/08/13 10:16:46;;;;;;;2.63;1.93;;;29.90;69.40;;;;;;5054508;28;20205;-75
2023/08/13 10:19:14;;;;;;;2.70;1.90;;;29.80;69.80;;;;;;5054445;28;20229;-75
2023/08/13 10:21:41;;;;;;;2.23;1.93;;;29.80;70.00;;;;;;5054199;28;20216;-75
2023/08/13 10:24:12;;;;;;;1.93;1.70;;;29.80;69.70;;;;;;5054310;28;20631;-75
2023/08/13 10:26:42;;;;;;;2.43;1.70;;;29.90;69.20;;;;;;5054109;28;20243;-75
2023/08/13 10:29:18;;;;;;;2.27;1.90;;;29.90;69.00;;;;;;5053589;28;20799;-74
2023/08/13 10:31:55;;;;;;;3.60;1.80;;;30.00;68.60;;;;;;5053727;28;20239;-75
2023/08/13 10:34:39;;;;;;;2.53;2.13;;;30.10;69.50;;;;;;5054308;28;20211;-74
2023/08/13 10:37:14;;;;;;;2.30;1.80;;;30.30;68.30;;;;;;5053687;28;20231;-73
2023/08/13 10:39:41;;;;;;;2.20;2.00;;;30.30;69.70;;;;;;5053853;28;20214;-74
2023/08/13 10:42:47;;;;;;;2.87;1.83;;;30.40;69.80;;;;;;5054578;28;20323;-73
2023/08/13 10:45:17;;;;;;;4.50;2.30;;;30.40;69.60;;;;;;5074000;28;20580;-74
2023/08/13 10:47:55;;;;;;;2.73;2.00;;;30.20;67.90;;;;;;5073433;28;20233;-74
2023/08/13 10:50:26;;;;;;;2.73;2.07;;;30.10;68.80;;;;;;5073853;28;20219;-74
2023/08/13 10:52:53;;;;;;;2.20;2.00;;;30.00;68.90;;;;;;5073348;28;20231;-75
2023/08/13 10:55:23;;;;;;;2.37;1.80;;;29.90;68.40;;;;;;5073805;28;20291;-73
2023/08/13 10:57:51;;;;;;;2.53;1.77;;;29.80;67.50;;;;;;5055545;28;20583;-73
2023/08/13 11:00:20;;;;;;;2.57;1.87;;;29.70;67.80;;;;;;5073651;28;20266;-75
2023/08/13 11:02:52;;;;;;;2.03;1.80;;;29.70;68.50;;;;;;5073310;28;20287;-73
2023/08/13 11:05:19;;;;;;;3.50;1.90;;;29.70;69.00;;;;;;5073798;28;20189;-74
2023/08/13 11:07:47;;;;;;;2.20;2.00;;;29.80;70.30;;;;;;5073053;28;20239;-74
2023/08/13 11:10:18;;;;;;;2.40;2.20;;;29.80;70.20;;;;;;5073774;28;20280;-74
2023/08/13 11:12:46;;;;;;;3.63;2.10;;;29.80;70.80;;;;;;5072924;28;20212;-74
2023/08/13 11:15:13;;;;;;;2.63;2.17;;;29.80;70.60;;;;;;5073263;28;20255;-75
2023/08/13 11:17:46;;;;;;;2.07;1.87;;;29.80;69.20;;;;;;5072956;28;20205;-74
2023/08/13 11:20:14;;;;;;;2.30;1.93;;;29.80;69.50;;;;;;5072882;28;20695;-75
2023/08/13 11:22:41;;;;;;;1.90;1.70;;;29.80;70.20;;;;;;5073075;28;20733;-74
2023/08/13 11:25:10;;;;;;;2.47;1.90;;;29.80;69.70;;;;;;5073282;28;20240;-74
2023/08/13 11:27:37;;;;;;;2.80;1.97;;;29.90;68.50;;;;;;5072603;28;20692;-74
2023/08/13 11:30:06;;;;;;;2.67;2.20;;;29.90;67.40;;;;;;5072563;28;20241;-75
2023/08/13 11:32:32;;;;;;;1.97;1.77;;;30.00;68.00;;;;;;5072884;28;20217;-74
2023/08/13 11:35:00;;;;;;;2.43;1.73;;;30.10;68.80;;;;;;5072768;28;20235;-75
2023/08/13 11:37:27;;;;;;;1.87;1.63;;;30.30;68.40;;;;;;5072912;28;20236;-76
2023/08/13 11:39:54;;;;;;;2.60;1.80;;;30.40;67.70;;;;;;5072738;28;20594;-74
2023/08/13 11:42:20;;;;;;;2.17;1.60;;;30.50;67.30;;;;;;5051460;28;20217;-74
2023/08/13 11:44:49;;;;;;;3.37;1.77;;;30.70;65.80;;;;;;5053064;28;20209;-74
2023/08/13 11:47:25;;;;;;;1.53;1.43;;;30.60;63.60;;;;;;5052843;28;20196;-74
2023/08/13 11:49:51;;;;;;;2.87;1.70;;;30.50;63.80;;;;;;5053017;28;20208;-74
2023/08/13 11:52:21;;;;;;;2.53;1.80;;;30.70;65.20;;;;;;5052675;28;20297;-74
2023/08/13 11:54:48;;;;;;;1.70;1.60;;;30.80;63.90;;;;;;5052343;28;20205;-75
2023/08/13 11:57:15;;;;;;;1.97;1.87;;;30.90;64.70;;;;;;5052472;28;20570;-74
2023/08/13 11:59:44;;;;;;;3.00;1.80;;;31.10;64.40;;;;;;5052608;28;20222;-74
2023/08/13 12:02:10;;;;;;;3.07;1.80;;;31.20;63.30;;;;;;5052003;28;20229;-75
2023/08/13 12:04:37;;;;;;;1.77;1.40;;;31.40;63.00;;;;;;5052292;28;20202;-74
2023/08/13 12:07:09;;;;;;;1.63;1.50;;;31.60;63.30;;;;;;5051587;28;20231;-75
2023/08/13 12:09:37;;;;;;;2.60;2.00;;;31.80;62.80;;;;;;5052374;28;20186;-74
2023/08/13 12:12:05;;;;;;;3.27;2.00;;;31.90;62.40;;;;;;5051914;28;20297;-74
2023/08/13 12:14:32;;;;;;;2.00;1.80;;;32.10;60.80;;;;;;5052092;28;20698;-73
2023/08/13 12:16:58;;;;;;;1.80;1.70;;;32.10;60.50;;;;;;5052196;28;20230;-74
2023/08/13 12:19:25;;;;;;;1.73;1.60;;;32.10;61.40;;;;;;5051982;28;20222;-75
2023/08/13 12:21:52;;;;;;;1.50;1.40;;;32.20;60.60;;;;;;5051740;28;20867;-75
2023/08/13 12:24:19;;;;;;;3.33;1.67;;;32.30;60.70;;;;;;5052267;28;20191;-74
2023/08/13 12:26:47;;;;;;;2.07;1.67;;;32.50;61.40;;;;;;5052266;28;20204;-74
2023/08/13 12:29:14;;;;;;;1.83;1.53;;;32.70;61.50;;;;;;5052160;28;20236;-74
2023/08/13 12:31:41;;;;;;;2.23;1.70;;;32.80;59.20;;;;;;5052352;28;20605;-74
2023/08/13 12:34:08;;;;;;;2.17;1.50;;;32.90;58.80;;;;;;5051947;28;20242;-75
2023/08/13 12:36:34;;;;;;;1.50;1.40;;;33.00;58.50;;;;;;5052101;28;20761;-73
2023/08/13 12:39:01;;;;;;;1.80;1.50;;;33.00;58.10;;;;;;5051567;28;20236;-74
2023/08/13 12:41:28;;;;;;;2.17;1.70;;;33.00;57.50;;;;;;5051713;28;20303;-75
2023/08/13 12:43:56;;;;;;;2.20;1.60;;;33.00;58.10;;;;;;5067468;28;20227;-74
2023/08/13 12:46:23;;;;;;;1.73;1.40;;;33.10;57.90;;;;;;5072110;28;20353;-73
2023/08/13 12:48:50;;;;;;;1.87;1.77;;;33.20;58.20;;;;;;5071453;28;20318;-73
2023/08/13 12:51:17;;;;;;;1.63;1.53;;;33.20;58.30;;;;;;5071997;28;20578;-75